createdAt,value
2024-03-12T00:00:48.828Z,96.34
2024-03-12T00:03:16.899Z,95.72
2024-03-12T00:05:44.951Z,97.19
2024-03-12T00:08:13.002Z,98.32
2024-03-12T00:10:41.096Z,97.35
2024-03-12T00:13:11.141Z,97.58
2024-03-12T00:15:39.301Z,96.63
2024-03-12T00:18:07.454Z,97.42
2024-03-12T00:20:36.472Z,95.16
2024-03-12T00:23:08.010Z,95.26
2024-03-12T00:25:36.446Z,94.94
2024-03-12T00:28:07.245Z,95.59
2024-03-12T00:30:35.648Z,95.80
2024-03-12T00:33:05.303Z,96.14
2024-03-12T00:35:36.995Z,95.42
2024-03-12T00:38:05.634Z,96.59
2024-03-12T00:40:37.854Z,97.37
2024-03-12T00:43:10.262Z,95.17
2024-03-12T00:45:39.177Z,93.97
2024-03-12T00:48:11.252Z,91.69
2024-03-12T00:50:41.112Z,92.24
2024-03-12T00:53:10.035Z,94.26
2024-03-12T00:55:37.896Z,94.44
2024-03-12T00:58:12.518Z,94.92
2024-03-12T01:00:42.310Z,95.13
2024-03-12T01:03:13.307Z,95.81
2024-03-12T01:05:43.082Z,98.16
2024-03-12T01:08:13.454Z,98.89
2024-03-12T01:10:41.821Z,98.58
2024-03-12T01:13:13.281Z,99.37
2024-03-12T01:15:41.726Z,99.74
2024-03-12T01:18:10.376Z,99.87
2024-03-12T01:20:38.616Z,100.00
2024-03-12T01:23:07.797Z,100.00
2024-03-12T01:25:37.621Z,100.00
2024-03-12T01:28:08.444Z,100.00
2024-03-12T01:30:38.438Z,100.00
2024-03-12T01:33:07.757Z,100.00
2024-03-12T01:35:42.601Z,98.94
2024-03-12T01:38:12.145Z,98.38
2024-03-12T01:40:43.296Z,98.03
2024-03-12T01:43:14.471Z,98.33
2024-03-12T01:45:44.053Z,97.09
2024-03-12T01:48:13.447Z,96.42
2024-03-12T01:50:42.651Z,97.21
2024-03-12T01:53:12.580Z,98.11
2024-03-12T01:55:45.484Z,97.86
2024-03-12T01:58:18.423Z,98.35
2024-03-12T02:00:47.585Z,98.58
2024-03-12T02:03:20.389Z,99.17
2024-03-12T02:05:49.100Z,100.00
2024-03-12T02:08:18.590Z,99.52
2024-03-12T02:10:47.397Z,99.57
2024-03-12T02:13:15.961Z,100.00
2024-03-12T02:15:44.624Z,100.00
2024-03-12T02:18:13.183Z,100.00
2024-03-12T02:20:41.377Z,100.00
2024-03-12T02:23:09.357Z,99.92
2024-03-12T02:25:37.350Z,100.00
2024-03-12T02:28:05.643Z,100.00
2024-03-12T02:30:33.857Z,100.00
2024-03-12T02:33:04.230Z,100.00
2024-03-12T02:35:36.220Z,100.00
2024-03-12T02:38:04.498Z,100.00
2024-03-12T02:40:32.432Z,100.00
2024-03-12T02:43:02.690Z,100.00
2024-03-12T02:45:30.938Z,100.00
2024-03-12T02:47:59.053Z,100.00
2024-03-12T02:50:27.732Z,100.00
2024-03-12T02:52:56.948Z,100.00
2024-03-12T02:55:25.176Z,100.00
2024-03-12T03:00:23.361Z,100.00
2024-03-12T03:02:55.644Z,100.00
2024-03-12T03:05:23.751Z,100.00
2024-03-12T03:07:51.954Z,100.00
2024-03-12T03:10:21.333Z,100.00
2024-03-12T03:12:49.571Z,100.00
2024-03-12T03:15:17.683Z,100.00
2024-03-12T03:17:47.580Z,99.77
2024-03-12T03:20:16.752Z,100.00
2024-03-12T03:22:46.241Z,100.00
2024-03-12T03:25:15.178Z,99.32
2024-03-12T03:27:43.689Z,99.65
2024-03-12T03:30:19.977Z,99.70
2024-03-12T03:32:49.550Z,100.00
2024-03-12T03:35:19.835Z,100.00
2024-03-12T03:37:48.245Z,100.00
2024-03-12T03:40:24.499Z,100.00
2024-03-12T03:42:54.648Z,100.00
2024-03-12T03:45:23.537Z,100.00
2024-03-12T03:47:52.149Z,99.55
2024-03-12T03:50:20.477Z,100.00
2024-03-12T03:52:49.454Z,100.00
2024-03-12T03:55:17.772Z,100.00
2024-03-12T03:57:45.899Z,100.00
2024-03-12T04:00:14.442Z,100.00
2024-03-12T04:02:45.822Z,99.44
2024-03-12T04:05:15.057Z,98.84
2024-03-12T04:07:45.696Z,99.57
2024-03-12T04:10:14.983Z,99.16
2024-03-12T04:12:46.419Z,98.80
2024-03-12T04:15:15.040Z,98.57
2024-03-12T04:17:45.781Z,98.73
2024-03-12T04:20:14.577Z,99.31
2024-03-12T04:22:45.041Z,99.57
2024-03-12T04:25:14.575Z,99.65
2024-03-12T04:27:42.965Z,99.56
2024-03-12T04:30:12.374Z,99.51
2024-03-12T04:32:41.029Z,98.04
2024-03-12T04:35:11.539Z,98.07
2024-03-12T04:37:40.319Z,97.92
2024-03-12T04:40:09.686Z,98.12
2024-03-12T04:42:39.436Z,97.68
2024-03-12T04:45:08.971Z,98.37
2024-03-12T04:47:39.362Z,97.79
2024-03-12T04:50:09.791Z,97.77
2024-03-12T04:52:38.163Z,97.64
2024-03-12T04:55:06.861Z,98.04
2024-03-12T04:57:37.152Z,97.95
2024-03-12T05:00:16.220Z,97.04
2024-03-12T05:02:45.647Z,97.96
2024-03-12T05:05:22.326Z,97.12
2024-03-12T05:07:54.333Z,97.56
2024-03-12T05:10:22.846Z,97.48
2024-03-12T05:12:53.873Z,97.73
2024-03-12T05:15:22.951Z,98.05
2024-03-12T05:17:50.989Z,96.18
2024-03-12T05:20:19.588Z,96.49
2024-03-12T05:22:47.916Z,96.25
2024-03-12T05:25:25.779Z,96.02
2024-03-12T05:27:54.693Z,96.67
2024-03-12T05:30:24.868Z,96.33
2024-03-12T05:32:55.531Z,96.98
2024-03-12T05:35:24.741Z,98.02
2024-03-12T05:38:13.270Z,97.40
2024-03-12T05:40:44.425Z,97.68
2024-03-12T05:43:32.425Z,98.42
2024-03-12T05:46:19.477Z,98.83
2024-03-12T05:48:51.987Z,100.00
2024-03-12T05:51:21.284Z,100.00
2024-03-12T05:53:49.871Z,99.81
2024-03-12T05:56:19.661Z,100.00
2024-03-12T05:58:48.343Z,100.00
2024-03-12T06:01:17.304Z,100.00
2024-03-12T06:03:45.742Z,98.86
2024-03-12T06:06:14.476Z,98.65
2024-03-12T06:08:42.559Z,97.83
2024-03-12T06:11:10.593Z,98.14
2024-03-12T06:13:39.665Z,96.11
2024-03-12T06:16:08.925Z,96.86
2024-03-12T06:18:37.411Z,95.14
2024-03-12T06:21:07.964Z,95.58
2024-03-12T06:23:36.766Z,94.58
2024-03-12T06:26:06.877Z,95.03
2024-03-12T06:28:35.901Z,94.56
2024-03-12T06:31:05.912Z,93.76
2024-03-12T06:33:34.818Z,92.96
2024-03-12T06:36:03.667Z,93.32
2024-03-12T06:38:31.708Z,92.29
2024-03-12T06:41:00.214Z,93.37
2024-03-12T06:43:28.206Z,94.82
2024-03-12T06:45:56.269Z,95.49
2024-03-12T06:48:24.254Z,93.26
2024-03-12T06:50:52.313Z,92.64
2024-03-12T06:53:21.404Z,92.13
2024-03-12T06:55:49.213Z,89.69
2024-03-12T06:58:20.682Z,89.45
2024-03-12T07:00:52.129Z,91.03
2024-03-12T07:03:23.651Z,92.22
2024-03-12T07:05:54.223Z,92.72
2024-03-12T07:08:27.018Z,94.11
2024-03-12T07:10:57.187Z,93.68
2024-03-12T07:13:27.733Z,93.64
2024-03-12T07:15:55.981Z,94.40
2024-03-12T07:18:25.044Z,85.18
2024-03-12T07:20:56.495Z,76.10
2024-03-12T07:23:24.777Z,70.54
2024-03-12T07:25:52.856Z,61.02
2024-03-12T07:28:24.275Z,51.86
2024-03-12T07:30:53.368Z,49.49
2024-03-12T07:33:22.062Z,43.75
2024-03-12T07:35:50.218Z,41.35
2024-03-12T07:38:19.083Z,37.33
2024-03-12T07:40:47.184Z,35.97
2024-03-12T07:43:15.624Z,36.67
2024-03-12T07:45:47.772Z,38.23
2024-03-12T07:48:15.967Z,42.18
2024-03-12T07:50:44.870Z,39.83
2024-03-12T07:53:13.881Z,41.23
2024-03-12T07:55:44.879Z,38.36
2024-03-12T07:58:14.228Z,38.52
2024-03-12T08:00:42.610Z,41.32
2024-03-12T08:03:13.189Z,37.17
2024-03-12T08:05:41.619Z,35.36
2024-03-12T08:08:09.565Z,32.53
2024-03-12T08:10:38.187Z,31.49
2024-03-12T08:13:06.908Z,31.54
2024-03-12T08:15:35.781Z,33.26
2024-03-12T08:18:13.104Z,35.03
2024-03-12T08:20:47.454Z,35.05
2024-03-12T08:23:15.981Z,37.17
2024-03-12T08:28:15.754Z,40.18
2024-03-12T08:30:47.646Z,42.18
2024-03-12T08:33:19.158Z,46.53
2024-03-12T08:35:47.310Z,49.11
2024-03-12T08:38:16.374Z,51.75
2024-03-12T08:40:44.421Z,53.89
2024-03-12T08:43:14.237Z,56.32
2024-03-12T08:45:42.400Z,59.09
2024-03-12T08:48:10.563Z,60.69
2024-03-12T08:50:38.638Z,62.20
2024-03-12T08:53:06.938Z,64.95
2024-03-12T08:55:35.939Z,66.22
2024-03-12T08:58:04.026Z,67.58
2024-03-12T09:00:33.485Z,69.35
2024-03-12T09:03:05.212Z,70.64
2024-03-12T09:05:33.165Z,70.65
2024-03-12T09:08:01.152Z,71.59
2024-03-12T09:10:29.191Z,71.95
2024-03-12T09:12:58.433Z,72.93
2024-03-12T09:15:26.569Z,73.03
2024-03-12T09:17:56.189Z,73.21
2024-03-12T09:20:24.302Z,73.71
2024-03-12T09:22:52.242Z,74.57
2024-03-12T09:25:20.432Z,72.98
2024-03-12T09:27:48.546Z,71.94
2024-03-12T09:30:18.281Z,72.80
2024-03-12T09:32:46.584Z,75.13
2024-03-12T09:35:14.859Z,73.81
2024-03-12T09:37:44.147Z,72.64
2024-03-12T09:40:14.893Z,72.83
2024-03-12T09:42:46.977Z,72.10
2024-03-12T09:45:15.215Z,73.34
2024-03-12T09:47:45.938Z,71.51
2024-03-12T09:50:18.365Z,72.70
2024-03-12T09:52:49.239Z,73.73
2024-03-12T09:55:18.449Z,72.93
2024-03-12T09:57:46.920Z,73.31
2024-03-12T10:00:26.255Z,70.24
2024-03-12T10:02:54.434Z,69.13
2024-03-12T10:05:24.361Z,67.32
2024-03-12T10:08:18.480Z,68.28
2024-03-12T10:10:49.106Z,67.74
2024-03-12T10:13:18.172Z,67.53
2024-03-12T10:16:05.094Z,67.45
2024-03-12T10:18:38.933Z,67.15
2024-03-12T10:21:08.693Z,63.12
2024-03-12T10:23:41.562Z,63.14
2024-03-12T10:26:12.923Z,61.07
2024-03-12T10:28:41.878Z,61.75
2024-03-12T10:31:11.844Z,61.03
2024-03-12T10:33:44.252Z,60.84
2024-03-12T10:36:12.906Z,61.08
2024-03-12T10:38:42.372Z,59.79
2024-03-12T10:41:22.689Z,57.39
2024-03-12T10:43:52.258Z,54.80
2024-03-12T10:46:21.211Z,52.78
2024-03-12T10:48:50.142Z,52.07
2024-03-12T10:51:20.919Z,50.93
2024-03-12T10:53:54.808Z,48.22
2024-03-12T10:56:23.427Z,48.85
2024-03-12T10:58:56.010Z,52.00
2024-03-12T11:01:25.767Z,51.56
2024-03-12T11:03:58.004Z,48.02
2024-03-12T11:06:27.390Z,50.60
2024-03-12T11:08:56.942Z,50.55
2024-03-12T11:11:24.992Z,50.46
2024-03-12T11:13:54.418Z,46.97
2024-03-12T11:16:22.641Z,48.62
2024-03-12T11:18:50.739Z,51.56
2024-03-12T11:21:40.789Z,51.44
2024-03-12T11:24:08.942Z,50.93
2024-03-12T11:26:38.221Z,53.50
2024-03-12T11:29:06.260Z,53.69
2024-03-12T11:31:41.132Z,53.69
2024-03-12T11:34:09.136Z,51.56
2024-03-12T11:36:50.182Z,52.75
2024-03-12T11:39:30.970Z,54.76
2024-03-12T11:42:02.482Z,50.59
2024-03-12T11:44:53.914Z,51.04
2024-03-12T11:47:31.271Z,50.49
2024-03-12T11:50:03.068Z,51.89
2024-03-12T11:52:35.176Z,49.09
2024-03-12T11:55:05.604Z,46.63
2024-03-12T11:57:34.990Z,43.17
2024-03-12T12:00:06.753Z,47.57
2024-03-12T12:02:43.840Z,49.66
2024-03-12T12:05:14.645Z,47.94
2024-03-12T12:07:42.885Z,47.54
2024-03-12T12:10:12.190Z,50.12
2024-03-12T12:12:40.430Z,50.61
2024-03-12T12:15:12.601Z,51.17
2024-03-12T12:17:40.724Z,51.59
2024-03-12T12:20:22.642Z,53.20
2024-03-12T12:22:53.614Z,52.92
2024-03-12T12:25:27.436Z,52.99
2024-03-12T12:27:56.750Z,53.87
2024-03-12T12:30:25.589Z,53.85
2024-03-12T12:32:53.972Z,55.19
2024-03-12T12:35:24.453Z,54.20
2024-03-12T12:37:53.508Z,54.54
2024-03-12T12:40:23.176Z,54.63
2024-03-12T12:42:54.823Z,54.87
2024-03-12T12:45:24.175Z,54.48
2024-03-12T12:47:52.251Z,56.37
2024-03-12T12:50:36.511Z,54.85
2024-03-12T12:53:06.047Z,55.91
2024-03-12T12:55:34.211Z,56.02
2024-03-12T12:58:04.427Z,56.75
2024-03-12T13:00:39.788Z,58.01
2024-03-12T13:03:19.906Z,56.79
2024-03-12T13:05:48.705Z,58.39
2024-03-12T13:08:23.623Z,58.59
2024-03-12T13:11:06.482Z,61.86
2024-03-12T13:13:36.589Z,60.72
2024-03-12T13:16:15.885Z,61.37
2024-03-12T13:18:48.716Z,60.51
2024-03-12T13:21:19.920Z,60.84
2024-03-12T13:23:49.046Z,59.99
2024-03-12T13:26:19.053Z,60.31
2024-03-12T13:28:49.352Z,61.76
2024-03-12T13:31:17.666Z,59.17
2024-03-12T13:33:47.485Z,58.43
2024-03-12T13:36:18.221Z,57.53
2024-03-12T13:38:46.715Z,60.81
2024-03-12T13:41:20.683Z,58.73
2024-03-12T13:43:51.537Z,58.51
2024-03-12T13:46:19.782Z,61.19
2024-03-12T13:48:48.374Z,59.18
2024-03-12T13:51:16.631Z,58.47
2024-03-12T13:53:44.841Z,57.92
2024-03-12T13:56:15.412Z,59.50
2024-03-12T13:58:45.460Z,61.22
2024-03-12T14:01:15.110Z,60.31
2024-03-12T14:03:43.870Z,61.42
2024-03-12T14:06:12.225Z,62.15
2024-03-12T14:08:40.547Z,63.50
2024-03-12T14:11:08.955Z,63.98
2024-03-12T14:13:36.983Z,63.92
2024-03-12T14:16:06.695Z,65.11
2024-03-12T14:18:34.819Z,64.36
2024-03-12T14:21:05.611Z,63.86
2024-03-12T14:23:33.620Z,63.79
2024-03-12T14:26:01.587Z,64.47
2024-03-12T14:28:29.571Z,61.61
2024-03-12T14:30:57.799Z,60.88
2024-03-12T14:33:29.752Z,61.30
2024-03-12T14:35:58.209Z,61.05
2024-03-12T14:38:26.180Z,61.40
2024-03-12T14:40:54.387Z,61.71
2024-03-12T14:43:22.420Z,61.66
2024-03-12T14:45:50.781Z,58.36
2024-03-12T14:48:18.919Z,60.01
2024-03-12T14:50:47.857Z,59.82
2024-03-12T14:53:16.046Z,58.86
2024-03-12T14:55:43.955Z,58.53
2024-03-12T14:58:12.387Z,59.06
2024-03-12T15:00:40.883Z,59.34
2024-03-12T15:03:09.126Z,59.35
2024-03-12T15:05:37.260Z,60.34
2024-03-12T15:08:12.124Z,59.48
2024-03-12T15:10:40.366Z,57.86
2024-03-12T15:13:08.407Z,60.47
2024-03-12T15:15:36.806Z,59.27
2024-03-12T15:18:06.185Z,60.17
2024-03-12T15:20:34.457Z,60.19
2024-03-12T15:23:03.275Z,60.30
2024-03-12T15:25:32.668Z,61.88
2024-03-12T15:28:01.143Z,61.29
2024-03-12T15:30:32.166Z,63.80
2024-03-12T15:33:00.671Z,64.25
2024-03-12T15:35:29.227Z,63.87
2024-03-12T15:38:00.082Z,63.85
2024-03-12T15:40:29.808Z,63.94
2024-03-12T15:42:57.840Z,63.45
2024-03-12T15:45:26.977Z,64.29
2024-03-12T15:47:55.791Z,65.39
2024-03-12T15:50:24.144Z,63.86
2024-03-12T15:52:53.112Z,63.20
2024-03-12T15:55:21.830Z,62.12
2024-03-12T15:57:51.064Z,62.93
2024-03-12T16:00:20.432Z,65.09
2024-03-12T16:02:56.674Z,64.03
2024-03-12T16:05:25.212Z,63.62
2024-03-12T16:07:56.674Z,64.34
2024-03-12T16:10:26.089Z,64.02
2024-03-12T16:12:56.729Z,64.48
2024-03-12T16:15:27.411Z,65.04
2024-03-12T16:17:56.891Z,66.83
2024-03-12T16:20:25.659Z,68.00
2024-03-12T16:22:54.121Z,68.37
2024-03-12T16:25:23.287Z,70.43
2024-03-12T16:27:51.442Z,71.95
2024-03-12T16:30:20.772Z,74.12
2024-03-12T16:32:48.946Z,76.37
2024-03-12T16:35:17.731Z,77.72
2024-03-12T16:37:46.242Z,78.76
2024-03-12T16:40:14.819Z,79.40
2024-03-12T16:42:46.033Z,78.62
2024-03-12T16:45:14.803Z,78.53
2024-03-12T16:47:43.590Z,79.87
2024-03-12T16:50:12.694Z,80.32
2024-03-12T16:52:40.872Z,81.22
2024-03-12T16:55:10.221Z,79.38
2024-03-12T16:57:39.603Z,80.45
2024-03-12T17:00:15.490Z,81.07
2024-03-12T17:02:44.688Z,82.66
2024-03-12T17:05:26.545Z,82.91
2024-03-12T17:08:02.506Z,83.85
2024-03-12T17:10:34.218Z,83.43
2024-03-12T17:13:03.812Z,84.55
2024-03-12T17:15:32.316Z,84.29
2024-03-12T17:18:01.250Z,84.18
2024-03-12T17:20:34.402Z,85.16
2024-03-12T17:23:04.613Z,84.57
2024-03-12T17:25:33.979Z,83.50
2024-03-12T17:28:05.431Z,83.36
2024-03-12T17:30:36.695Z,84.07
2024-03-12T17:33:10.543Z,86.65
2024-03-12T17:35:39.918Z,87.58
2024-03-12T17:38:14.865Z,87.04
2024-03-12T17:40:43.419Z,86.91
2024-03-12T17:43:13.164Z,88.01
2024-03-12T17:45:41.811Z,88.45
2024-03-12T17:48:13.454Z,88.39
2024-03-12T17:50:42.053Z,87.66
2024-03-12T17:53:12.070Z,87.48
2024-03-12T17:55:44.209Z,88.43
2024-03-12T17:58:13.636Z,88.40
2024-03-12T18:00:42.551Z,88.57
2024-03-12T18:03:11.142Z,87.69
2024-03-12T18:05:39.726Z,88.05
2024-03-12T18:08:15.362Z,87.92
2024-03-12T18:10:47.563Z,88.01
2024-03-12T18:13:16.341Z,87.66
2024-03-12T18:15:44.913Z,87.43
2024-03-12T18:18:15.013Z,86.93
2024-03-12T18:20:46.544Z,88.17
2024-03-12T18:23:15.783Z,88.87
2024-03-12T18:25:43.910Z,88.36
2024-03-12T18:28:12.277Z,88.32
2024-03-12T18:30:40.637Z,87.00
2024-03-12T18:33:12.830Z,87.53
2024-03-12T18:35:43.231Z,87.41
2024-03-12T18:38:11.912Z,87.63
2024-03-12T18:40:40.520Z,88.28
2024-03-12T18:43:09.252Z,88.26
2024-03-12T18:45:41.196Z,87.66
2024-03-12T18:48:12.841Z,86.83
2024-03-12T18:50:41.651Z,86.37
2024-03-12T18:53:10.536Z,86.09
2024-03-12T18:55:39.216Z,86.55
2024-03-12T18:58:08.192Z,87.87
2024-03-12T19:00:37.178Z,88.00
2024-03-12T19:03:15.949Z,86.18
2024-03-12T19:05:48.402Z,87.74
2024-03-12T19:08:17.191Z,86.53
2024-03-12T19:10:46.274Z,86.57
2024-03-12T19:13:17.092Z,87.24
2024-03-12T19:15:46.459Z,87.35
2024-03-12T19:18:21.866Z,88.01
2024-03-12T19:20:53.034Z,88.02
2024-03-12T19:23:22.734Z,86.75
2024-03-12T19:25:51.443Z,88.24
2024-03-12T19:28:20.192Z,88.86
2024-03-12T19:30:49.702Z,89.25
2024-03-12T19:33:20.565Z,88.66
2024-03-12T19:35:52.114Z,88.23
2024-03-12T19:38:24.927Z,87.72
2024-03-12T19:40:54.237Z,87.51
2024-03-12T19:43:25.639Z,87.14
2024-03-12T19:46:03.592Z,86.98
2024-03-12T19:48:32.653Z,86.40
2024-03-12T19:51:01.345Z,86.73
2024-03-12T19:53:30.037Z,86.34
2024-03-12T19:55:58.415Z,87.07
2024-03-12T19:58:27.470Z,86.63
2024-03-12T20:00:56.069Z,86.66
2024-03-12T20:03:27.346Z,86.98
2024-03-12T20:05:58.236Z,88.06
2024-03-12T20:08:27.506Z,87.96
2024-03-12T20:10:57.387Z,87.83
2024-03-12T20:13:25.732Z,88.11
2024-03-12T20:15:54.124Z,88.30
2024-03-12T20:18:22.777Z,88.75
2024-03-12T20:20:51.148Z,87.78
2024-03-12T20:23:19.358Z,87.48
2024-03-12T20:25:47.695Z,86.93
2024-03-12T20:28:16.057Z,87.75
2024-03-12T20:30:45.014Z,87.88
2024-03-12T20:33:15.405Z,88.13
2024-03-12T20:35:45.283Z,87.43
2024-03-12T20:38:15.678Z,87.91
2024-03-12T20:40:44.511Z,88.25
2024-03-12T20:43:15.167Z,90.17
2024-03-12T20:45:46.693Z,91.75
2024-03-12T20:48:15.052Z,92.58
2024-03-12T20:50:44.050Z,92.63
2024-03-12T20:53:12.160Z,92.24
2024-03-12T20:55:40.553Z,91.80
2024-03-12T20:58:08.983Z,91.35
2024-03-12T21:00:39.400Z,91.47
2024-03-12T21:03:10.814Z,91.42
2024-03-12T21:05:40.725Z,91.41
2024-03-12T21:08:09.031Z,91.13
2024-03-12T21:10:39.334Z,91.84
2024-03-12T21:13:07.890Z,91.08
2024-03-12T21:15:36.518Z,90.39
2024-03-12T21:18:07.420Z,90.43
2024-03-12T21:20:35.957Z,91.18
2024-03-12T21:23:05.287Z,90.78
2024-03-12T21:25:36.484Z,90.92
2024-03-12T21:28:04.905Z,91.90
2024-03-12T21:30:33.164Z,91.90
2024-03-12T21:33:04.197Z,91.57
2024-03-12T21:35:32.228Z,90.29
2024-03-12T21:38:00.585Z,90.40
2024-03-12T21:40:30.698Z,90.68
2024-03-12T21:42:58.837Z,90.75
2024-03-12T21:45:27.154Z,89.95
2024-03-12T21:47:56.616Z,91.28
2024-03-12T21:50:24.731Z,92.04
2024-03-12T21:52:52.861Z,91.83
2024-03-12T21:55:21.806Z,92.38
2024-03-12T21:57:50.387Z,91.33
2024-03-12T22:00:25.474Z,91.25
2024-03-12T22:02:53.865Z,90.99
2024-03-12T22:05:21.881Z,90.70
2024-03-12T22:07:51.158Z,90.55
2024-03-12T22:10:19.712Z,90.73
2024-03-12T22:12:48.545Z,90.20
2024-03-12T22:15:17.004Z,89.45
2024-03-12T22:17:47.064Z,90.89
2024-03-12T22:20:20.146Z,91.32
2024-03-12T22:22:49.332Z,91.63
2024-03-12T22:25:17.984Z,91.05
2024-03-12T22:27:50.274Z,90.37
2024-03-12T22:30:18.911Z,89.45
2024-03-12T22:32:48.597Z,89.57
2024-03-12T22:35:17.108Z,91.10
2024-03-12T22:37:49.035Z,92.25
2024-03-12T22:40:20.090Z,92.87
2024-03-12T22:42:49.395Z,92.37
2024-03-12T22:45:17.948Z,91.65
2024-03-12T22:47:46.304Z,91.25
2024-03-12T22:50:15.683Z,90.89
2024-03-12T22:52:47.512Z,91.75
2024-03-12T22:55:16.127Z,91.31
2024-03-12T22:57:44.526Z,91.07
2024-03-12T23:00:36.136Z,91.55
2024-03-12T23:03:05.860Z,91.47
2024-03-12T23:05:37.414Z,92.16
2024-03-12T23:08:06.731Z,91.63
2024-03-12T23:10:39.894Z,91.89
2024-03-12T23:13:12.500Z,92.07
2024-03-12T23:15:41.744Z,91.87
2024-03-12T23:18:13.314Z,92.21
2024-03-12T23:20:42.077Z,92.06
2024-03-12T23:23:10.511Z,92.11
2024-03-12T23:25:40.342Z,91.91
2024-03-12T23:28:08.382Z,91.68
2024-03-12T23:30:36.300Z,91.29
2024-03-12T23:33:04.566Z,91.20
2024-03-12T23:35:34.497Z,91.14
2024-03-12T23:38:03.871Z,89.86
2024-03-12T23:40:31.961Z,90.54
2024-03-12T23:43:00.071Z,90.98
2024-03-12T23:45:27.949Z,91.62
2024-03-12T23:47:56.131Z,92.03
2024-03-12T23:50:25.136Z,91.80
2024-03-12T23:52:52.868Z,91.54
2024-03-12T23:55:20.885Z,91.34
2024-03-12T23:57:50.054Z,91.67
